createdAt,value
2019-01-21T00:01:06.377Z,48.30
2019-01-21T00:03:46.097Z,60.57
2019-01-21T00:06:24.449Z,68.07
2019-01-21T00:09:02.457Z,68.47
2019-01-21T00:11:40.218Z,52.03
2019-01-21T00:14:18.686Z,78.10
2019-01-21T00:16:57.727Z,88.70
2019-01-21T00:19:37.582Z,61.37
2019-01-21T00:22:17.816Z,68.93
2019-01-21T00:28:38.069Z,41.20
2019-01-21T00:31:23.026Z,59.23
2019-01-21T00:34:04.559Z,56.30
2019-01-21T00:36:42.058Z,48.07
2019-01-21T00:39:30.204Z,63.33
2019-01-21T00:42:08.409Z,45.47
2019-01-21T00:44:46.692Z,46.47
2019-01-21T00:47:38.558Z,68.50
2019-01-21T00:50:18.031Z,49.93
2019-01-21T00:53:03.042Z,46.47
2019-01-21T00:55:43.978Z,79.03
2019-01-21T00:58:47.103Z,68.77
2019-01-21T01:01:27.389Z,58.37
2019-01-21T01:04:06.166Z,73.70
2019-01-21T01:06:47.112Z,71.60
2019-01-21T01:09:25.688Z,61.33
2019-01-21T01:12:02.754Z,57.77
2019-01-21T01:14:40.819Z,51.37
2019-01-21T01:17:19.172Z,59.50
2019-01-21T01:19:57.060Z,62.47
2019-01-21T01:22:36.997Z,96.97
2019-01-21T01:25:16.175Z,208.37
2019-01-21T01:27:57.875Z,124.30
2019-01-21T01:30:39.132Z,71.70
2019-01-21T01:33:20.528Z,51.50
2019-01-21T01:36:01.858Z,45.60
2019-01-21T01:38:39.193Z,47.27
2019-01-21T01:41:16.677Z,46.30
2019-01-21T01:43:55.366Z,51.67
2019-01-21T01:46:33.128Z,38.27
2019-01-21T01:49:16.246Z,41.07
2019-01-21T01:51:55.747Z,41.80
2019-01-21T01:54:34.751Z,43.00
2019-01-21T01:57:15.026Z,61.13
2019-01-21T01:59:53.899Z,57.97
2019-01-21T02:02:32.539Z,64.33
2019-01-21T02:05:10.291Z,52.57
2019-01-21T02:07:52.947Z,43.73
2019-01-21T02:10:31.990Z,60.07
2019-01-21T02:13:10.183Z,62.73
2019-01-21T02:15:48.789Z,340.17
2019-01-21T02:18:33.285Z,185.13
2019-01-21T02:21:18.857Z,96.70
2019-01-21T02:24:05.880Z,65.93
2019-01-21T02:27:10.627Z,73.77
2019-01-21T02:30:34.894Z,62.87
2019-01-21T02:33:56.008Z,74.77
2019-01-21T02:37:01.001Z,54.07
2019-01-21T02:40:15.408Z,47.13
2019-01-21T02:43:19.580Z,40.10
2019-01-21T02:46:23.479Z,64.17
2019-01-21T02:49:17.152Z,41.53
2019-01-21T02:52:27.602Z,41.07
2019-01-21T02:55:34.576Z,39.67
2019-01-21T02:58:29.624Z,53.87
2019-01-21T03:01:39.603Z,35.83
2019-01-21T03:04:52.058Z,34.40
2019-01-21T03:07:48.308Z,39.10
2019-01-21T03:10:42.466Z,29.87
2019-01-21T03:13:57.567Z,39.90
2019-01-21T03:17:17.152Z,35.57
2019-01-21T03:20:10.949Z,36.13
2019-01-21T03:23:43.405Z,38.33
2019-01-21T03:26:41.675Z,139.63
2019-01-21T03:29:50.340Z,69.97
2019-01-21T03:32:56.098Z,109.03
2019-01-21T03:36:21.489Z,96.13
2019-01-21T03:39:35.784Z,56.87
2019-01-21T03:42:19.947Z,63.57
2019-01-21T03:46:04.388Z,88.60
2019-01-21T03:48:52.260Z,149.17
2019-01-21T03:52:03.495Z,102.70
2019-01-21T03:55:00.621Z,213.10
2019-01-21T03:58:31.642Z,147.47
2019-01-21T04:01:42.136Z,238.53
2019-01-21T04:04:51.788Z,133.07
2019-01-21T04:07:51.496Z,124.87
2019-01-21T04:11:14.912Z,74.07
2019-01-21T04:14:26.828Z,67.93
2019-01-21T04:17:55.580Z,225.67
2019-01-21T04:20:56.871Z,121.17
2019-01-21T04:23:55.827Z,125.73
2019-01-21T04:26:55.541Z,86.63
2019-01-21T04:30:03.701Z,79.73
2019-01-21T04:33:17.878Z,80.30
2019-01-21T04:36:12.788Z,83.20
2019-01-21T04:39:33.195Z,51.23
2019-01-21T04:42:44.897Z,61.90
2019-01-21T04:45:47.979Z,56.27
2019-01-21T04:49:00.944Z,78.07
2019-01-21T04:52:03.957Z,84.67
2019-01-21T04:55:25.460Z,51.50
2019-01-21T04:58:36.154Z,104.37
2019-01-21T05:01:53.952Z,122.53
2019-01-21T05:05:10.559Z,83.50
2019-01-21T05:08:16.730Z,74.70
2019-01-21T05:11:37.206Z,73.03
2019-01-21T05:14:33.927Z,81.63
2019-01-21T05:18:01.821Z,68.00
2019-01-21T05:21:30.489Z,43.57
2019-01-21T05:24:46.629Z,52.53
2019-01-21T05:27:46.903Z,44.03
2019-01-21T05:30:59.552Z,53.47
2019-01-21T05:34:18.855Z,82.40
2019-01-21T05:37:24.477Z,71.93
2019-01-21T05:40:38.624Z,80.37
2019-01-21T05:44:15.428Z,49.03
2019-01-21T05:47:25.268Z,57.17
2019-01-21T05:50:44.608Z,628.43
2019-01-21T05:53:56.459Z,294.50
2019-01-21T05:57:14.347Z,158.10
2019-01-21T06:00:30.627Z,244.07
2019-01-21T06:03:52.381Z,97.60
2019-01-21T06:06:44.635Z,71.97
2019-01-21T06:09:51.310Z,53.27
2019-01-21T06:13:09.832Z,37.47
2019-01-21T06:16:23.515Z,60.80
2019-01-21T06:19:28.549Z,236.07
2019-01-21T06:22:32.481Z,115.83
2019-01-21T06:26:09.524Z,37.90
2019-01-21T06:29:36.955Z,49.57
2019-01-21T06:32:48.233Z,40.83
2019-01-21T06:35:38.261Z,42.87
2019-01-21T06:38:53.414Z,106.80
2019-01-21T06:42:00.160Z,55.50
2019-01-21T06:45:20.315Z,77.37
2019-01-21T06:48:49.835Z,73.33
2019-01-21T06:51:55.371Z,59.90
2019-01-21T06:55:05.591Z,51.30
2019-01-21T06:58:24.795Z,40.43
2019-01-21T07:01:35.623Z,59.70
2019-01-21T07:04:47.139Z,63.77
2019-01-21T07:08:22.301Z,49.00
2019-01-21T07:11:34.281Z,43.77
2019-01-21T07:14:41.756Z,41.97
2019-01-21T07:17:35.468Z,54.17
2019-01-21T07:20:34.708Z,38.57
2019-01-21T07:23:48.952Z,91.23
2019-01-21T07:26:47.953Z,114.00
2019-01-21T07:29:58.297Z,58.73
2019-01-21T07:33:03.486Z,52.87
2019-01-21T07:36:23.085Z,77.83
2019-01-21T07:39:37.492Z,144.60
2019-01-21T07:42:53.425Z,62.57
2019-01-21T07:45:59.826Z,50.57
2019-01-21T07:49:07.713Z,76.80
2019-01-21T07:52:13.740Z,95.87
2019-01-21T07:55:20.664Z,102.50
2019-01-21T07:58:59.287Z,59.10
2019-01-21T08:02:16.256Z,66.57
2019-01-21T08:05:31.290Z,39.83
2019-01-21T08:09:01.393Z,65.27
2019-01-21T08:12:17.598Z,42.33
2019-01-21T08:15:26.267Z,45.93
2019-01-21T08:18:57.945Z,44.97
2019-01-21T08:22:12.253Z,44.80
2019-01-21T08:25:51.936Z,51.50
2019-01-21T08:28:42.500Z,48.40
2019-01-21T08:32:02.738Z,94.00
2019-01-21T08:35:27.756Z,102.13
2019-01-21T08:38:40.364Z,162.17
2019-01-21T08:41:47.817Z,84.70
2019-01-21T08:45:04.073Z,117.53
2019-01-21T08:48:23.323Z,72.10
2019-01-21T08:51:24.315Z,70.70
2019-01-21T08:54:20.032Z,45.33
2019-01-21T08:57:42.184Z,48.43
2019-01-21T09:00:52.554Z,40.07
2019-01-21T09:03:55.129Z,39.33
2019-01-21T09:06:45.260Z,59.70
2019-01-21T09:09:50.618Z,44.50
2019-01-21T09:13:03.552Z,43.33
2019-01-21T09:16:24.617Z,34.43
2019-01-21T09:19:24.094Z,45.23
2019-01-21T09:22:18.008Z,45.33
2019-01-21T09:25:41.636Z,51.30
2019-01-21T09:29:04.209Z,44.37
2019-01-21T09:32:17.315Z,44.83
2019-01-21T09:35:42.549Z,52.00
2019-01-21T09:38:57.961Z,56.43
2019-01-21T09:42:09.296Z,45.33
2019-01-21T09:45:27.598Z,44.37
2019-01-21T09:48:01.917Z,38.97
2019-01-21T09:50:43.989Z,43.30
2019-01-21T09:53:26.685Z,42.30
2019-01-21T09:56:07.001Z,37.03
2019-01-21T09:58:48.257Z,41.80
2019-01-21T10:01:27.623Z,49.77
2019-01-21T10:04:08.227Z,38.10
2019-01-21T10:06:55.683Z,38.47
2019-01-21T10:09:44.259Z,45.20
2019-01-21T10:13:08.104Z,45.90
2019-01-21T10:16:30.719Z,49.07
2019-01-21T10:20:13.399Z,52.10
2019-01-21T10:23:32.841Z,49.40
2019-01-21T10:26:46.927Z,46.40
2019-01-21T10:29:59.579Z,44.67
2019-01-21T10:33:08.782Z,49.80
2019-01-21T10:36:27.789Z,48.27
2019-01-21T10:47:08.211Z,159.03
2019-01-21T10:50:45.437Z,1093.00
2019-01-21T10:54:26.236Z,844.77
2019-01-21T10:57:50.851Z,1117.40
2019-01-21T11:01:25.338Z,445.80
2019-01-21T11:04:38.897Z,213.63
2019-01-21T11:08:24.969Z,116.53
2019-01-21T11:11:58.668Z,124.03
2019-01-21T11:15:14.538Z,123.07
2019-01-21T11:18:15.207Z,109.53
2019-01-21T11:21:28.308Z,115.97
2019-01-21T11:24:47.803Z,112.10
2019-01-21T11:28:01.324Z,110.33
2019-01-21T11:31:41.215Z,115.83
2019-01-21T11:35:15.566Z,102.17
2019-01-21T11:38:35.825Z,117.53
2019-01-21T11:42:15.399Z,113.07
2019-01-21T11:45:14.189Z,105.27
2019-01-21T11:48:27.512Z,139.97
2019-01-21T11:51:47.606Z,121.37
2019-01-21T11:55:14.657Z,120.57
2019-01-21T11:58:41.969Z,143.93
2019-01-21T12:02:03.360Z,104.97
2019-01-21T12:05:13.685Z,95.23
2019-01-21T12:08:21.143Z,106.07
2019-01-21T12:11:23.407Z,116.13
2019-01-21T12:14:42.002Z,116.43
2019-01-21T12:18:03.230Z,181.10
2019-01-21T12:21:28.586Z,137.77
2019-01-21T12:24:50.277Z,101.20
2019-01-21T12:29:22.287Z,94.83
2019-01-21T12:31:21.522Z,103.43
2019-01-21T12:34:48.745Z,103.47
2019-01-21T12:37:58.297Z,104.30
2019-01-21T12:41:28.034Z,104.13
2019-01-21T12:44:59.744Z,113.90
2019-01-21T12:48:21.840Z,197.43
2019-01-21T12:51:36.372Z,140.47
2019-01-21T12:54:48.463Z,122.27
2019-01-21T12:58:21.231Z,116.40
2019-01-21T13:01:26.338Z,109.37
2019-01-21T13:04:25.011Z,105.80
2019-01-21T13:07:55.201Z,118.03
2019-01-21T13:11:19.895Z,104.00
2019-01-21T13:14:37.730Z,106.33
2019-01-21T13:17:49.143Z,109.47
2019-01-21T13:21:08.783Z,111.80
2019-01-21T13:24:15.424Z,111.13
2019-01-21T13:27:29.915Z,114.67
2019-01-21T13:30:37.874Z,96.10
2019-01-21T13:33:55.520Z,109.53
2019-01-21T13:37:17.208Z,105.57
2019-01-21T13:40:34.901Z,103.50
2019-01-21T13:43:33.806Z,100.30
2019-01-21T13:46:52.480Z,114.07
2019-01-21T13:50:07.656Z,124.73
2019-01-21T13:53:24.287Z,121.17
2019-01-21T13:57:03.516Z,113.67
2019-01-21T14:04:11.681Z,155.93
2019-01-21T14:07:35.019Z,117.83
2019-01-21T14:11:01.252Z,101.90
2019-01-21T14:14:04.867Z,97.17
2019-01-21T14:18:33.434Z,104.13
2019-01-21T14:21:35.424Z,109.23
2019-01-21T14:24:27.150Z,118.53
2019-01-21T14:27:52.818Z,458.60
2019-01-21T14:31:11.724Z,214.10
2019-01-21T14:34:04.930Z,131.33
2019-01-21T14:37:16.165Z,120.47
2019-01-21T14:40:20.530Z,117.93
2019-01-21T14:43:24.562Z,104.67
2019-01-21T14:47:01.652Z,114.97
2019-01-21T14:50:38.184Z,115.37
2019-01-21T14:57:07.862Z,112.17
2019-01-21T15:00:09.468Z,121.57
2019-01-21T15:03:38.500Z,112.50
2019-01-21T15:06:50.916Z,111.77
2019-01-21T15:10:17.859Z,127.20
2019-01-21T15:13:43.219Z,117.33
2019-01-21T15:17:23.665Z,135.10
2019-01-21T15:23:54.097Z,127.80
2019-01-21T15:30:37.450Z,137.53
2019-01-21T15:33:47.332Z,123.83
2019-01-21T15:37:18.902Z,123.33
2019-01-21T15:41:02.203Z,129.43
2019-01-21T15:43:54.893Z,118.47
2019-01-21T15:50:44.616Z,120.97
2019-01-21T15:53:52.638Z,135.23
2019-01-21T15:56:45.464Z,116.80
2019-01-21T16:00:00.275Z,116.17
2019-01-21T16:02:56.774Z,126.60
2019-01-21T16:06:30.433Z,131.30
2019-01-21T16:09:42.167Z,128.53
2019-01-21T16:17:06.945Z,122.90
2019-01-21T16:20:27.451Z,126.80
2019-01-21T16:24:24.003Z,133.67
2019-01-21T16:27:12.958Z,133.43
2019-01-21T16:30:40.928Z,127.17
2019-01-21T16:33:51.840Z,146.67
2019-01-21T16:37:09.462Z,127.50
2019-01-21T16:40:25.270Z,139.17
2019-01-21T16:43:02.151Z,134.60
2019-01-21T16:45:41.855Z,147.53
2019-01-21T16:48:25.101Z,150.30
2019-01-21T16:51:04.048Z,136.07
2019-01-21T16:53:47.425Z,135.73
2019-01-21T16:56:25.678Z,136.23
2019-01-21T16:59:06.764Z,148.00
2019-01-21T17:01:56.165Z,137.20
2019-01-21T17:04:34.440Z,150.17
2019-01-21T17:07:13.358Z,145.47
2019-01-21T17:09:52.921Z,132.90
2019-01-21T17:12:31.805Z,135.87
2019-01-21T17:15:13.885Z,142.07
2019-01-21T17:17:52.595Z,144.20
2019-01-21T17:20:31.801Z,135.30
2019-01-21T17:23:09.753Z,130.37
2019-01-21T17:25:51.137Z,156.33
2019-01-21T17:28:35.066Z,152.00
2019-01-21T17:31:13.008Z,152.70
2019-01-21T17:33:55.739Z,148.23
2019-01-21T17:36:35.656Z,141.73
2019-01-21T17:39:15.653Z,144.83
2019-01-21T17:41:55.005Z,157.93
2019-01-21T17:44:35.157Z,138.90
2019-01-21T17:47:16.268Z,156.10
2019-01-21T17:49:57.346Z,140.33
2019-01-21T17:52:36.306Z,140.90
2019-01-21T17:55:15.259Z,141.00
2019-01-21T17:57:57.310Z,140.00
2019-01-21T18:00:36.633Z,131.33
2019-01-21T18:03:17.119Z,142.97
2019-01-21T18:05:54.394Z,151.30
2019-01-21T18:08:32.342Z,152.07
2019-01-21T18:11:12.921Z,141.30
2019-01-21T18:13:56.421Z,139.47
2019-01-21T18:16:45.154Z,149.67
2019-01-21T18:19:23.000Z,132.57
2019-01-21T18:22:03.874Z,142.07
2019-01-21T18:24:42.049Z,136.90
2019-01-21T18:27:21.547Z,138.50
2019-01-21T18:29:59.620Z,138.80
2019-01-21T18:32:37.784Z,140.60
2019-01-21T18:35:18.171Z,155.57
2019-01-21T18:37:56.123Z,148.93
2019-01-21T18:40:47.020Z,151.07
2019-01-21T18:43:25.722Z,157.00
2019-01-21T18:46:05.581Z,133.87
2019-01-21T18:48:45.603Z,136.87
2019-01-21T18:51:22.955Z,141.03
2019-01-21T18:54:01.272Z,139.40
2019-01-21T18:56:39.747Z,144.37
2019-01-21T18:59:19.978Z,140.23
2019-01-21T19:01:57.511Z,157.67
2019-01-21T19:04:35.238Z,158.50
2019-01-21T19:07:12.888Z,145.30
2019-01-21T19:09:52.521Z,152.43
2019-01-21T19:12:32.036Z,140.93
2019-01-21T19:15:13.375Z,141.67
2019-01-21T19:17:52.551Z,138.23
2019-01-21T19:20:31.366Z,143.27
2019-01-21T19:23:12.557Z,135.23
2019-01-21T19:25:51.450Z,149.83
2019-01-21T19:28:31.690Z,146.07
2019-01-21T19:31:10.848Z,147.33
2019-01-21T19:33:49.949Z,149.77
2019-01-21T19:36:29.364Z,147.40
2019-01-21T19:39:07.692Z,146.20
2019-01-21T19:41:46.085Z,145.97
2019-01-21T19:44:26.441Z,132.17
2019-01-21T19:47:05.944Z,139.33
2019-01-21T19:49:43.797Z,149.97
2019-01-21T19:52:24.078Z,148.30
2019-01-21T19:55:04.909Z,142.87
2019-01-21T19:57:42.217Z,143.77
2019-01-21T20:00:21.894Z,140.57
2019-01-21T20:03:03.472Z,146.73
2019-01-21T20:05:41.675Z,139.73
2019-01-21T20:08:20.794Z,135.43
2019-01-21T20:10:58.858Z,138.93
2019-01-21T20:13:37.468Z,137.73
2019-01-21T20:16:15.374Z,151.13
2019-01-21T20:18:53.226Z,161.80
2019-01-21T20:21:31.742Z,153.23
2019-01-21T20:24:13.886Z,148.10
2019-01-21T20:26:52.306Z,143.63
2019-01-21T20:29:31.008Z,138.97
2019-01-21T20:32:08.342Z,136.37
2019-01-21T20:34:47.276Z,148.90
2019-01-21T20:37:25.948Z,148.93
2019-01-21T20:40:04.122Z,137.40
2019-01-21T20:42:45.679Z,145.60
2019-01-21T20:45:23.666Z,143.40
2019-01-21T20:48:02.916Z,154.47
2019-01-21T20:50:40.760Z,162.67
2019-01-21T20:53:20.199Z,154.83
2019-01-21T20:55:59.676Z,151.27
2019-01-21T20:58:37.187Z,153.67
2019-01-21T21:01:16.212Z,148.17
2019-01-21T21:03:55.550Z,152.53
2019-01-21T21:06:33.367Z,160.77
2019-01-21T21:09:13.616Z,145.97
2019-01-21T21:11:53.659Z,150.07
2019-01-21T21:14:32.093Z,164.33
2019-01-21T21:17:09.760Z,166.60
2019-01-21T21:19:47.390Z,167.33
2019-01-21T21:22:24.807Z,176.23
2019-01-21T21:25:03.068Z,167.13
2019-01-21T21:27:42.169Z,172.10
2019-01-21T21:30:23.840Z,168.50
2019-01-21T21:33:02.738Z,163.90
2019-01-21T21:35:40.084Z,177.87
2019-01-21T21:38:17.295Z,179.37
2019-01-21T21:40:54.647Z,165.83
2019-01-21T21:43:32.472Z,183.67
2019-01-21T21:46:13.395Z,183.83
2019-01-21T21:48:52.709Z,182.53
2019-01-21T21:51:32.030Z,179.77
2019-01-21T21:54:10.173Z,170.73
2019-01-21T21:56:49.346Z,181.13
2019-01-21T21:59:27.015Z,185.47
2019-01-21T22:02:06.858Z,170.17
2019-01-21T22:04:45.348Z,185.40
2019-01-21T22:07:25.663Z,176.13
2019-01-21T22:10:03.286Z,174.83
2019-01-21T22:12:41.699Z,203.43
2019-01-21T22:15:20.926Z,192.17
2019-01-21T22:17:58.585Z,201.87
2019-01-21T22:20:37.994Z,206.77
2019-01-21T22:23:15.959Z,199.60
2019-01-21T22:25:53.245Z,203.40
2019-01-21T22:28:31.539Z,191.23
2019-01-21T22:31:12.482Z,203.27
2019-01-21T22:33:50.736Z,203.70
2019-01-21T22:36:27.785Z,192.60
2019-01-21T22:39:10.566Z,191.60
2019-01-21T22:41:50.126Z,212.17
2019-01-21T22:44:28.983Z,203.30
2019-01-21T22:47:09.324Z,206.90
2019-01-21T22:49:48.566Z,211.63
2019-01-21T22:52:29.284Z,200.87
2019-01-21T22:55:06.739Z,209.23
2019-01-21T22:57:43.464Z,214.60
2019-01-21T23:01:05.357Z,217.33
2019-01-21T23:03:42.669Z,312.40
2019-01-21T23:06:21.789Z,287.43
2019-01-21T23:09:01.948Z,236.90
2019-01-21T23:11:46.008Z,209.53
2019-01-21T23:14:25.762Z,206.23
2019-01-21T23:17:03.972Z,205.80
2019-01-21T23:19:41.459Z,222.50
2019-01-21T23:22:20.521Z,201.63
2019-01-21T23:24:58.377Z,205.43
2019-01-21T23:27:37.908Z,206.37
2019-01-21T23:30:23.181Z,213.93
2019-01-21T23:33:01.381Z,240.07
2019-01-21T23:35:41.655Z,243.40
2019-01-21T23:38:22.080Z,240.17
2019-01-21T23:41:00.264Z,246.70
2019-01-21T23:43:38.107Z,289.60
2019-01-21T23:46:19.712Z,282.83
2019-01-21T23:48:58.786Z,212.10
2019-01-21T23:51:36.546Z,211.10
2019-01-21T23:54:15.271Z,213.40
2019-01-21T23:56:54.020Z,206.00
2019-01-21T23:59:33.399Z,209.77
